createdAt,value
2022-11-24T00:01:29.208Z,2.90
2022-11-24T00:04:00.967Z,2.15
2022-11-24T00:06:30.272Z,2.35
2022-11-24T00:08:59.452Z,2.10
2022-11-24T00:11:29.980Z,2.10
2022-11-24T00:13:59.401Z,2.20
2022-11-24T00:16:29.656Z,2.60
2022-11-24T00:19:00.937Z,2.40
2022-11-24T00:21:30.768Z,2.37
2022-11-24T00:23:59.905Z,2.08
2022-11-24T00:26:29.933Z,2.40
2022-11-24T00:29:00.035Z,1.80
2022-11-24T00:31:30.429Z,2.85
2022-11-24T00:34:02.898Z,2.00
2022-11-24T00:36:33.814Z,2.20
2022-11-24T00:39:04.954Z,1.63
2022-11-24T00:41:33.498Z,1.90
2022-11-24T00:44:02.114Z,2.00
2022-11-24T00:46:30.895Z,1.65
2022-11-24T00:49:01.726Z,2.10
2022-11-24T00:51:30.927Z,1.73
2022-11-24T00:53:59.634Z,2.22
2022-11-24T00:56:29.176Z,1.90
2022-11-24T00:58:58.193Z,2.07
2022-11-24T01:01:28.856Z,1.60
2022-11-24T01:03:57.264Z,2.40
2022-11-24T01:06:28.042Z,2.30
2022-11-24T01:08:57.624Z,1.80
2022-11-24T01:11:28.235Z,2.10
2022-11-24T01:13:59.440Z,2.17
2022-11-24T01:16:30.530Z,2.35
2022-11-24T01:18:59.394Z,2.40
2022-11-24T01:21:29.244Z,2.10
2022-11-24T01:23:58.556Z,1.60
2022-11-24T01:26:26.951Z,1.90
2022-11-24T01:28:56.085Z,1.77
2022-11-24T01:31:25.376Z,2.13
2022-11-24T01:33:54.138Z,2.03
2022-11-24T01:36:22.906Z,2.00
2022-11-24T01:38:53.201Z,2.50
2022-11-24T01:41:23.384Z,1.60
2022-11-24T01:43:52.850Z,2.03
2022-11-24T01:46:25.940Z,2.25
2022-11-24T01:49:01.975Z,2.10
2022-11-24T01:51:32.875Z,2.03
2022-11-24T01:54:07.845Z,2.30
2022-11-24T01:56:38.556Z,2.00
2022-11-24T01:59:11.799Z,1.80
2022-11-24T02:01:40.314Z,2.20
2022-11-24T02:04:15.718Z,2.00
2022-11-24T02:06:47.385Z,1.80
2022-11-24T02:09:25.124Z,1.60
2022-11-24T02:11:55.956Z,1.53
2022-11-24T02:14:25.965Z,1.63
2022-11-24T02:16:54.429Z,1.55
2022-11-24T02:19:33.759Z,2.80
2022-11-24T02:22:04.212Z,2.10
2022-11-24T02:24:39.191Z,1.70
2022-11-24T02:27:10.882Z,1.92
2022-11-24T02:29:39.610Z,2.13
2022-11-24T02:32:10.504Z,1.95
2022-11-24T02:34:38.871Z,2.30
2022-11-24T02:37:07.241Z,2.27
2022-11-24T02:39:35.624Z,2.10
2022-11-24T02:42:09.730Z,1.90
2022-11-24T02:44:42.184Z,2.85
2022-11-24T02:47:13.366Z,2.00
2022-11-24T02:49:42.155Z,2.40
2022-11-24T02:52:10.754Z,2.70
2022-11-24T02:54:39.110Z,2.20
2022-11-24T02:57:08.893Z,2.65
2022-11-24T02:59:37.250Z,3.50
2022-11-24T03:02:05.599Z,2.90
2022-11-24T03:04:34.238Z,2.15
2022-11-24T03:07:02.882Z,2.10
2022-11-24T03:09:32.472Z,2.25
2022-11-24T03:12:00.820Z,1.85
2022-11-24T03:14:30.583Z,2.00
2022-11-24T03:16:58.901Z,1.90
2022-11-24T03:19:27.351Z,1.90
2022-11-24T03:21:55.685Z,2.60
2022-11-24T03:24:24.236Z,2.10
2022-11-24T03:26:52.643Z,2.65
2022-11-24T03:29:20.940Z,2.50
2022-11-24T03:31:50.965Z,2.35
2022-11-24T03:34:19.365Z,2.30
2022-11-24T03:36:47.645Z,2.20
2022-11-24T03:39:16.068Z,2.43
2022-11-24T03:41:44.338Z,1.90
2022-11-24T03:44:12.650Z,1.83
2022-11-24T03:46:41.000Z,1.80
2022-11-24T03:50:09.370Z,2.00
2022-11-24T03:52:38.961Z,1.70
2022-11-24T03:55:08.182Z,2.10
2022-11-24T03:57:36.460Z,1.90
2022-11-24T04:00:06.861Z,1.90
2022-11-24T04:02:36.384Z,1.55
2022-11-24T04:05:05.219Z,1.60
2022-11-24T04:07:33.661Z,1.60
2022-11-24T04:10:03.611Z,1.77
2022-11-24T04:12:45.820Z,2.40
2022-11-24T04:15:16.547Z,1.75
2022-11-24T04:17:45.451Z,1.77
2022-11-24T04:20:14.382Z,1.90
2022-11-24T04:22:42.976Z,2.10
2022-11-24T04:25:12.994Z,2.10
2022-11-24T04:27:41.240Z,1.80
2022-11-24T04:30:10.523Z,1.70
2022-11-24T04:32:38.836Z,1.80
2022-11-24T04:35:07.787Z,2.60
2022-11-24T04:37:36.459Z,2.17
2022-11-24T04:40:05.895Z,2.38
2022-11-24T04:42:35.547Z,1.80
2022-11-24T04:45:04.123Z,1.70
2022-11-24T04:47:32.448Z,2.20
2022-11-24T04:50:00.875Z,2.50
2022-11-24T04:52:30.998Z,2.00
2022-11-24T04:54:59.434Z,1.93
2022-11-24T04:57:28.394Z,2.30
2022-11-24T04:59:57.924Z,1.70
2022-11-24T05:02:26.390Z,1.70
2022-11-24T05:04:55.080Z,1.60
2022-11-24T05:07:23.344Z,1.85
2022-11-24T05:10:08.792Z,2.00
2022-11-24T05:12:37.056Z,2.13
2022-11-24T05:15:08.003Z,2.63
2022-11-24T05:17:39.098Z,2.55
2022-11-24T05:20:08.637Z,2.80
2022-11-24T05:22:37.000Z,2.42
2022-11-24T05:25:05.639Z,2.20
2022-11-24T05:27:33.842Z,2.25
2022-11-24T05:30:02.115Z,2.10
2022-11-24T05:32:31.657Z,2.78
2022-11-24T05:35:02.219Z,2.47
2022-11-24T05:37:30.612Z,2.10
2022-11-24T05:39:59.192Z,1.90
2022-11-24T05:42:47.144Z,2.20
2022-11-24T05:45:18.323Z,2.42
2022-11-24T05:47:50.345Z,1.83
2022-11-24T05:50:20.828Z,2.30
2022-11-24T05:52:49.627Z,2.40
2022-11-24T05:55:19.545Z,2.50
2022-11-24T05:57:47.879Z,1.98
2022-11-24T06:00:18.468Z,2.40
2022-11-24T06:02:48.295Z,2.17
2022-11-24T06:05:16.982Z,1.90
2022-11-24T06:07:45.350Z,2.40
2022-11-24T06:10:13.604Z,2.28
2022-11-24T06:12:41.842Z,2.72
2022-11-24T06:15:11.242Z,2.70
2022-11-24T06:17:40.335Z,2.23
2022-11-24T06:20:11.801Z,2.58
2022-11-24T06:22:40.079Z,2.22
2022-11-24T06:25:09.489Z,1.90
2022-11-24T06:27:37.737Z,2.90
2022-11-24T06:30:06.971Z,2.38
2022-11-24T06:32:35.313Z,2.70
2022-11-24T06:35:03.579Z,2.00
2022-11-24T06:37:33.442Z,2.90
2022-11-24T06:40:01.684Z,2.50
2022-11-24T06:42:30.522Z,2.40
2022-11-24T06:44:58.695Z,2.20
2022-11-24T06:47:26.913Z,2.60
2022-11-24T06:49:55.237Z,3.30
2022-11-24T06:52:23.647Z,2.78
2022-11-24T06:54:53.689Z,2.25
2022-11-24T06:57:22.121Z,2.60
2022-11-24T06:59:50.752Z,2.90
2022-11-24T07:02:19.140Z,1.90
2022-11-24T07:04:47.350Z,4.13
2022-11-24T07:07:15.647Z,3.60
2022-11-24T07:09:44.018Z,2.83
2022-11-24T07:12:13.748Z,2.60
2022-11-24T07:14:41.961Z,2.20
2022-11-24T07:17:10.161Z,2.53
2022-11-24T07:19:38.436Z,2.35
2022-11-24T07:22:06.774Z,2.40
2022-11-24T07:24:35.192Z,2.47
2022-11-24T07:27:03.643Z,2.88
2022-11-24T07:29:33.382Z,2.50
2022-11-24T07:32:05.446Z,3.20
2022-11-24T07:34:34.493Z,3.20
2022-11-24T07:37:02.928Z,2.20
2022-11-24T07:39:31.173Z,2.30
2022-11-24T07:42:00.315Z,2.70
2022-11-24T07:44:28.634Z,1.92
2022-11-24T07:46:58.270Z,2.30
2022-11-24T07:49:26.458Z,2.10
2022-11-24T07:51:54.721Z,1.50
2022-11-24T07:54:22.905Z,2.17
2022-11-24T07:56:51.103Z,1.80
2022-11-24T07:59:19.363Z,2.50
2022-11-24T08:01:47.706Z,1.83
2022-11-24T08:04:17.299Z,1.80
2022-11-24T08:06:47.497Z,1.80
2022-11-24T08:09:16.051Z,1.92
2022-11-24T08:11:44.236Z,2.45
2022-11-24T08:14:12.460Z,1.90
2022-11-24T08:16:40.692Z,2.13
2022-11-24T08:19:10.960Z,1.60
2022-11-24T08:21:40.673Z,1.50
2022-11-24T08:24:09.967Z,1.75
2022-11-24T08:26:38.177Z,1.20
2022-11-24T08:29:06.420Z,1.30
2022-11-24T08:31:36.154Z,1.33
2022-11-24T08:34:05.851Z,1.10
2022-11-24T08:36:35.202Z,1.30
2022-11-24T08:39:05.046Z,1.52
2022-11-24T08:41:33.481Z,1.00
2022-11-24T08:44:01.948Z,1.10
2022-11-24T08:46:30.316Z,1.08
2022-11-24T08:48:58.616Z,1.20
2022-11-24T08:51:28.196Z,1.38
2022-11-24T08:53:58.337Z,1.25
2022-11-24T08:56:28.869Z,1.30
2022-11-24T08:58:58.040Z,0.95
2022-11-24T09:01:28.568Z,1.33
2022-11-24T09:03:56.975Z,1.38
2022-11-24T09:06:27.317Z,1.00
2022-11-24T09:08:56.001Z,1.33
2022-11-24T09:11:25.218Z,1.03
2022-11-24T09:13:55.124Z,1.20
2022-11-24T09:16:25.896Z,1.40
2022-11-24T09:18:59.724Z,1.42
2022-11-24T09:21:28.566Z,1.40
2022-11-24T09:23:57.466Z,1.30
2022-11-24T09:26:28.245Z,1.27
2022-11-24T09:28:59.191Z,1.80
2022-11-24T09:31:29.467Z,1.05
2022-11-24T09:33:59.476Z,1.20
2022-11-24T09:36:28.171Z,0.90
2022-11-24T09:38:56.895Z,1.15
2022-11-24T09:41:50.673Z,1.40
2022-11-24T09:47:20.100Z,1.10
2022-11-24T09:49:52.055Z,2.00
2022-11-24T09:52:24.489Z,1.30
2022-11-24T09:55:01.512Z,1.33
2022-11-24T09:57:37.049Z,1.50
2022-11-24T10:00:13.991Z,1.30
2022-11-24T10:02:44.304Z,1.50
2022-11-24T10:05:13.947Z,1.13
2022-11-24T10:07:49.140Z,1.40
2022-11-24T10:10:24.861Z,1.30
2022-11-24T10:13:05.601Z,1.20
2022-11-24T10:15:45.055Z,2.50
2022-11-24T10:18:32.816Z,1.73
2022-11-24T10:21:11.340Z,1.92
2022-11-24T10:23:52.565Z,1.70
2022-11-24T10:26:26.373Z,1.70
2022-11-24T10:28:56.570Z,1.70
2022-11-24T10:31:33.656Z,1.80
2022-11-24T10:34:10.925Z,1.60
2022-11-24T10:36:46.105Z,1.83
2022-11-24T10:39:20.572Z,1.90
2022-11-24T10:41:53.837Z,1.63
2022-11-24T10:44:21.976Z,1.77
2022-11-24T10:46:50.567Z,2.05
2022-11-24T10:49:25.169Z,2.00
2022-11-24T10:52:05.134Z,2.00
2022-11-24T10:54:35.927Z,2.13
2022-11-24T10:57:04.515Z,1.90
2022-11-24T10:59:36.009Z,2.15
2022-11-24T11:02:26.551Z,2.60
2022-11-24T11:04:56.261Z,2.60
2022-11-24T11:07:27.132Z,2.20
2022-11-24T11:10:21.280Z,3.30
2022-11-24T11:12:50.807Z,2.60
2022-11-24T11:15:27.457Z,2.05
2022-11-24T11:17:59.533Z,2.60
2022-11-24T11:20:33.130Z,2.60
2022-11-24T11:23:04.346Z,2.53
2022-11-24T11:25:34.999Z,2.50
2022-11-24T11:28:22.966Z,3.80
2022-11-24T11:31:17.833Z,2.80
2022-11-24T11:34:03.825Z,2.17
2022-11-24T11:36:35.562Z,2.45
2022-11-24T11:39:05.805Z,2.80
2022-11-24T11:41:37.064Z,2.20
2022-11-24T11:44:22.657Z,1.90
2022-11-24T11:46:50.954Z,2.67
2022-11-24T11:49:19.257Z,2.30
2022-11-24T11:52:05.070Z,2.70
2022-11-24T11:54:50.754Z,2.10
2022-11-24T11:57:27.407Z,2.00
2022-11-24T12:00:05.531Z,2.63
2022-11-24T12:03:15.956Z,2.72
2022-11-24T12:05:52.168Z,2.88
2022-11-24T12:08:55.917Z,3.45
2022-11-24T12:11:29.203Z,3.35
2022-11-24T12:14:11.907Z,1.90
2022-11-24T12:16:47.764Z,2.22
2022-11-24T12:19:27.410Z,2.10
2022-11-24T12:22:06.662Z,2.30
2022-11-24T12:24:46.109Z,2.22
2022-11-24T12:27:24.171Z,2.20
2022-11-24T12:30:12.270Z,2.40
2022-11-24T12:33:08.666Z,2.60
2022-11-24T12:35:40.949Z,2.08
2022-11-24T12:38:23.901Z,1.95
2022-11-24T12:41:39.624Z,2.00
2022-11-24T12:44:01.296Z,2.15
2022-11-24T12:46:36.967Z,2.83
2022-11-24T12:49:16.764Z,1.70
2022-11-24T12:51:49.359Z,1.90
2022-11-24T12:54:21.678Z,1.80
2022-11-24T12:57:01.696Z,2.45
2022-11-24T12:59:38.580Z,1.70
2022-11-24T13:02:18.100Z,2.30
2022-11-24T13:04:52.957Z,2.10
2022-11-24T13:07:25.414Z,2.60
2022-11-24T13:13:28.573Z,2.30
2022-11-24T13:16:35.778Z,2.03
2022-11-24T13:19:11.159Z,3.22
2022-11-24T13:22:01.736Z,2.35
2022-11-24T13:24:31.920Z,1.80
2022-11-24T13:27:27.742Z,1.70
2022-11-24T13:29:57.386Z,1.92
2022-11-24T13:33:02.846Z,2.75
2022-11-24T13:35:31.480Z,2.28
2022-11-24T13:37:59.723Z,2.05
2022-11-24T13:40:54.195Z,2.03
2022-11-24T13:43:31.002Z,1.90
2022-11-24T13:46:00.609Z,2.10
2022-11-24T13:49:00.083Z,1.70
2022-11-24T13:51:28.704Z,2.27
2022-11-24T13:54:01.885Z,1.80
2022-11-24T13:56:32.370Z,2.10
2022-11-24T13:59:03.675Z,2.17
2022-11-24T14:01:37.093Z,2.03
2022-11-24T14:04:33.574Z,2.38
2022-11-24T14:07:08.201Z,2.70
2022-11-24T14:09:41.886Z,2.38
2022-11-24T14:12:16.199Z,2.20
2022-11-24T14:14:46.240Z,1.90
2022-11-24T14:17:22.335Z,2.30
2022-11-24T14:19:51.643Z,2.30
2022-11-24T14:22:22.714Z,2.05
2022-11-24T14:24:56.521Z,2.65
2022-11-24T14:27:32.626Z,2.10
2022-11-24T14:30:02.749Z,2.20
2022-11-24T14:32:32.408Z,2.00
2022-11-24T14:35:00.749Z,1.38
2022-11-24T14:37:29.145Z,1.92
2022-11-24T14:39:57.425Z,1.80
2022-11-24T14:42:28.332Z,1.90
2022-11-24T14:44:59.318Z,1.45
2022-11-24T14:47:32.689Z,1.60
2022-11-24T14:50:12.601Z,1.73
2022-11-24T14:52:47.076Z,2.10
2022-11-24T14:55:27.086Z,1.90
2022-11-24T14:57:55.575Z,1.77
2022-11-24T15:00:29.767Z,1.85
2022-11-24T15:03:20.414Z,2.00
2022-11-24T15:05:54.007Z,1.50
2022-11-24T15:08:23.321Z,2.03
2022-11-24T15:10:58.430Z,2.00
2022-11-24T15:13:27.169Z,2.10
2022-11-24T15:16:02.469Z,2.13
2022-11-24T15:18:42.490Z,3.20
2022-11-24T15:21:18.548Z,3.35
2022-11-24T15:24:06.450Z,3.22
2022-11-24T15:26:41.362Z,3.35
2022-11-24T15:29:10.929Z,3.83
2022-11-24T15:31:39.466Z,4.00
2022-11-24T15:34:13.315Z,3.92
2022-11-24T15:36:41.567Z,3.40
2022-11-24T15:39:09.791Z,3.60
2022-11-24T15:41:38.303Z,3.40
2022-11-24T15:44:06.534Z,4.38
2022-11-24T15:46:38.589Z,3.75
2022-11-24T15:49:08.877Z,4.18
2022-11-24T15:51:39.566Z,3.80
2022-11-24T15:54:12.697Z,4.00
2022-11-24T15:56:41.921Z,3.90
2022-11-24T15:59:18.555Z,4.32
2022-11-24T16:01:49.778Z,4.20
2022-11-24T16:04:19.933Z,4.78
2022-11-24T16:06:48.191Z,4.70
2022-11-24T16:09:18.136Z,4.75
2022-11-24T16:11:46.545Z,4.90
2022-11-24T16:14:14.916Z,4.68
2022-11-24T16:16:43.810Z,5.53
2022-11-24T16:19:12.617Z,5.43
2022-11-24T16:21:42.244Z,4.70
2022-11-24T16:24:10.749Z,4.60
2022-11-24T16:26:39.034Z,4.90
2022-11-24T16:29:07.337Z,5.10
2022-11-24T16:31:35.648Z,5.13
2022-11-24T16:34:04.051Z,5.35
2022-11-24T16:36:32.206Z,5.00
2022-11-24T16:39:02.381Z,5.35
2022-11-24T16:41:30.554Z,5.37
2022-11-24T16:43:58.910Z,5.03
2022-11-24T16:46:28.372Z,5.43
2022-11-24T16:49:00.970Z,5.55
2022-11-24T16:51:34.755Z,5.00
2022-11-24T16:54:05.209Z,4.88
2022-11-24T16:56:33.511Z,4.90
2022-11-24T16:59:02.321Z,5.55
2022-11-24T17:01:30.980Z,5.22
2022-11-24T17:03:59.257Z,5.20
2022-11-24T17:06:27.987Z,5.50
2022-11-24T17:08:56.836Z,5.25
2022-11-24T17:11:28.702Z,4.82
2022-11-24T17:13:57.958Z,4.82
2022-11-24T17:16:27.002Z,4.25
2022-11-24T17:18:55.635Z,4.50
2022-11-24T17:21:25.983Z,4.60
2022-11-24T17:23:55.883Z,6.13
2022-11-24T17:26:24.946Z,6.30
2022-11-24T17:28:55.925Z,7.60
2022-11-24T17:31:27.316Z,5.95
2022-11-24T17:33:57.573Z,7.20
2022-11-24T17:36:26.208Z,7.47
2022-11-24T17:38:54.443Z,7.57
2022-11-24T17:41:23.523Z,7.63
2022-11-24T17:43:52.200Z,8.93
2022-11-24T17:46:21.824Z,11.88
2022-11-24T17:48:50.104Z,12.52
2022-11-24T17:51:19.993Z,11.65
2022-11-24T17:53:49.580Z,9.57
2022-11-24T17:56:19.466Z,9.80
2022-11-24T17:58:47.654Z,8.97
2022-11-24T18:01:16.894Z,10.33
2022-11-24T18:03:50.461Z,9.68
2022-11-24T18:06:24.954Z,9.05
2022-11-24T18:08:54.248Z,8.90
2022-11-24T18:11:30.493Z,8.27
2022-11-24T18:14:02.094Z,7.50
2022-11-24T18:16:31.754Z,7.03
2022-11-24T18:19:11.016Z,6.70
2022-11-24T18:21:41.417Z,6.60
2022-11-24T18:24:10.458Z,5.45
2022-11-24T18:26:38.924Z,5.70
2022-11-24T18:29:07.873Z,6.30
2022-11-24T18:31:36.704Z,7.25
2022-11-24T18:34:07.222Z,6.72
2022-11-24T18:36:35.906Z,6.57
2022-11-24T18:39:05.209Z,6.72
2022-11-24T18:41:33.485Z,6.15
2022-11-24T18:44:03.368Z,5.47
2022-11-24T18:46:31.615Z,5.60
2022-11-24T18:49:00.529Z,5.00
2022-11-24T18:51:30.155Z,4.57
2022-11-24T18:53:59.166Z,3.88
2022-11-24T18:56:27.789Z,3.90
2022-11-24T18:58:57.272Z,3.60
2022-11-24T19:01:27.354Z,4.03
2022-11-24T19:03:57.582Z,3.55
2022-11-24T19:06:28.832Z,4.65
2022-11-24T19:08:59.060Z,11.60
2022-11-24T19:11:29.128Z,13.45
2022-11-24T19:13:57.771Z,13.85
2022-11-24T19:16:26.447Z,12.77
2022-11-24T19:18:59.957Z,7.97
2022-11-24T19:21:29.072Z,6.60
2022-11-24T19:24:04.569Z,4.50
2022-11-24T19:26:34.885Z,3.70
2022-11-24T19:29:04.270Z,4.10
2022-11-24T19:31:33.307Z,3.75
2022-11-24T19:34:03.169Z,2.88
2022-11-24T19:36:31.536Z,2.42
2022-11-24T19:39:02.051Z,2.60
2022-11-24T19:41:32.033Z,2.67
2022-11-24T19:44:00.890Z,2.90
2022-11-24T19:46:30.963Z,3.08
2022-11-24T19:49:02.951Z,2.20
2022-11-24T19:51:32.693Z,2.80
2022-11-24T19:54:03.740Z,2.20
2022-11-24T19:56:34.171Z,2.40
2022-11-24T19:59:03.228Z,2.70
2022-11-24T20:01:32.936Z,2.80
2022-11-24T20:04:03.020Z,2.47
2022-11-24T20:06:33.154Z,2.33
2022-11-24T20:09:03.409Z,2.30
2022-11-24T20:11:31.981Z,2.30
2022-11-24T20:14:01.044Z,2.90
2022-11-24T20:16:31.201Z,3.47
2022-11-24T20:19:00.874Z,4.03
2022-11-24T20:21:31.198Z,3.40
2022-11-24T20:24:01.193Z,2.95
2022-11-24T20:26:33.747Z,3.50
2022-11-24T20:29:03.050Z,3.05
2022-11-24T20:31:33.531Z,2.70
2022-11-24T20:34:03.378Z,3.40
2022-11-24T20:36:32.742Z,2.80
2022-11-24T20:39:02.344Z,2.42
2022-11-24T20:41:34.797Z,2.85
2022-11-24T20:44:05.200Z,2.70
2022-11-24T20:46:35.844Z,3.20
2022-11-24T20:49:04.846Z,2.80
2022-11-24T20:51:34.752Z,3.10
2022-11-24T20:54:06.583Z,3.40
2022-11-24T20:56:38.159Z,2.90
2022-11-24T20:59:06.634Z,3.17
2022-11-24T21:01:38.274Z,2.73
2022-11-24T21:04:08.883Z,3.10
2022-11-24T21:06:38.110Z,3.40
2022-11-24T21:09:08.129Z,2.88
2022-11-24T21:11:38.439Z,3.00
2022-11-24T21:14:07.182Z,2.50
2022-11-24T21:16:37.356Z,2.50
2022-11-24T21:19:07.068Z,3.10
2022-11-24T21:21:36.974Z,2.95
2022-11-24T21:24:07.954Z,3.47
2022-11-24T21:26:38.873Z,2.93
2022-11-24T21:29:08.072Z,3.20
2022-11-24T21:31:38.471Z,3.25
2022-11-24T21:34:07.693Z,2.78
2022-11-24T21:36:37.872Z,2.55
2022-11-24T21:39:06.291Z,2.60
2022-11-24T21:41:35.184Z,2.40
2022-11-24T21:44:04.911Z,2.33
2022-11-24T21:46:40.520Z,2.07
2022-11-24T21:49:13.202Z,2.80
2022-11-24T21:51:41.646Z,2.30
2022-11-24T21:54:10.281Z,3.00
2022-11-24T21:56:38.530Z,2.28
2022-11-24T21:59:08.267Z,2.88
2022-11-24T22:01:36.515Z,5.43
2022-11-24T22:04:04.877Z,5.93
2022-11-24T22:06:33.329Z,9.25
2022-11-24T22:09:01.670Z,8.27
2022-11-24T22:11:29.966Z,8.30
2022-11-24T22:13:58.159Z,9.85
2022-11-24T22:16:27.859Z,9.70
2022-11-24T22:18:56.134Z,10.10
2022-11-24T22:21:29.948Z,10.07
2022-11-24T22:23:58.266Z,11.60
2022-11-24T22:26:27.656Z,9.60
2022-11-24T22:28:57.128Z,9.13
2022-11-24T22:31:29.012Z,8.63
2022-11-24T22:33:58.806Z,8.15
2022-11-24T22:36:29.022Z,8.45
2022-11-24T22:38:58.750Z,7.35
2022-11-24T22:41:27.276Z,7.23
2022-11-24T22:43:55.530Z,6.32
2022-11-24T22:46:26.153Z,6.50
2022-11-24T22:48:56.514Z,6.30
2022-11-24T22:51:26.991Z,5.60
2022-11-24T22:53:56.522Z,5.13
2022-11-24T22:56:25.471Z,5.72
2022-11-24T22:58:53.754Z,7.00
2022-11-24T23:01:23.655Z,6.85
2022-11-24T23:03:56.518Z,4.97
2022-11-24T23:06:26.187Z,4.20
2022-11-24T23:08:55.350Z,3.40
2022-11-24T23:11:31.646Z,3.50
2022-11-24T23:14:05.506Z,2.40
2022-11-24T23:16:34.169Z,3.00
2022-11-24T23:19:04.131Z,3.20
2022-11-24T23:21:34.226Z,2.30
2022-11-24T23:24:04.760Z,2.60
2022-11-24T23:26:34.807Z,2.08
2022-11-24T23:29:03.041Z,2.00
2022-11-24T23:31:31.347Z,1.60
2022-11-24T23:34:00.843Z,2.00
2022-11-24T23:36:31.532Z,2.38
2022-11-24T23:39:03.600Z,2.00
2022-11-24T23:41:33.166Z,2.30
2022-11-24T23:44:01.623Z,2.10
2022-11-24T23:46:30.420Z,2.20
2022-11-24T23:48:59.253Z,1.90
2022-11-24T23:51:28.881Z,1.70
2022-11-24T23:53:59.692Z,2.35
2022-11-24T23:56:31.561Z,2.20
2022-11-24T23:59:00.094Z,2.17
